Time;durP1;ratioP1;P1;durP2;ratioP2;P2;SDS_P1;SDS_P2;PMS_P1;PMS_P2;Temp;Humidity;BMP_temperature;BMP_pressure;BME280_temperature;BME280_humidity;BME280_pressure;Samples;Min_cycle;Max_cycle;Signal;HPM_P1;HPM_P2
2022/04/03 00:00:00;;;;;;;5.32;3.40;;;;;;;3.60;47.49;101536.25;690934;28;861;-85
2022/04/03 00:00:22;;;;;;;4.90;3.70;;;;;;;3.60;47.39;101537.13;691358;28;1144;-83
2022/04/03 00:00:42;;;;;;;4.07;3.78;;;;;;;3.60;47.39;101531.06;690390;28;1864;-84
2022/04/03 00:01:04;;;;;;;3.78;3.47;;;;;;;3.61;47.29;101538.91;690713;28;1039;-85
2022/04/03 00:01:37;;;;;;;3.42;3.22;;;;;;;3.66;47.42;101549.53;686164;28;1424;-85
2022/04/03 00:01:57;;;;;;;3.90;3.50;;;;;;;3.55;47.43;101531.63;685204;28;1005;-85
2022/04/03 00:02:18;;;;;;;3.90;3.40;;;;;;;3.46;47.51;101528.44;690151;28;1345;-84
2022/04/03 00:02:39;;;;;;;4.10;3.45;;;;;;;3.48;47.81;101526.84;690611;28;1079;-84
2022/04/03 00:03:00;;;;;;;3.60;3.30;;;;;;;3.52;47.72;101541.75;689504;28;1715;-84
2022/04/03 00:03:21;;;;;;;4.00;3.60;;;;;;;3.59;47.50;101545.66;686969;28;1444;-84
2022/04/03 00:03:41;;;;;;;4.18;3.78;;;;;;;3.57;47.55;101542.06;682684;29;1187;-84
2022/04/03 00:04:02;;;;;;;4.75;4.25;;;;;;;3.57;47.31;101536.91;690709;28;1114;-84
2022/04/03 00:04:24;;;;;;;4.30;3.90;;;;;;;3.56;47.73;101538.59;695759;28;1220;-85
2022/04/03 00:04:44;;;;;;;4.28;3.80;;;;;;;3.62;47.35;101552.72;696233;28;1073;-84
2022/04/03 00:05:05;;;;;;;4.13;3.53;;;;;;;3.61;47.38;101541.47;696187;28;1012;-85
2022/04/03 00:05:27;;;;;;;3.92;3.40;;;;;;;3.52;47.53;101536.59;688871;28;1158;-84
2022/04/03 00:05:47;;;;;;;3.75;3.45;;;;;;;3.51;47.45;101542.56;683039;28;1259;-84
2022/04/03 00:06:08;;;;;;;3.58;3.28;;;;;;;3.55;47.29;101539.38;688005;28;967;-84
2022/04/03 00:06:28;;;;;;;3.50;3.20;;;;;;;3.55;47.81;101554.88;688048;28;819;-85
2022/04/03 00:06:49;;;;;;;3.70;3.40;;;;;;;3.59;47.48;101552.50;685357;28;1024;-85
2022/04/03 00:07:11;;;;;;;3.60;3.40;;;;;;;3.54;47.66;101541.84;687673;28;1967;-84
2022/04/03 00:07:32;;;;;;;3.70;3.40;;;;;;;3.62;48.09;101551.00;687917;28;1698;-84
2022/04/03 00:07:54;;;;;;;3.40;3.20;;;;;;;3.54;47.62;101540.19;687966;28;1261;-85
2022/04/03 00:08:15;;;;;;;3.70;3.40;;;;;;;3.58;47.47;101545.53;687610;28;1400;-84
2022/04/03 00:08:36;;;;;;;3.80;3.50;;;;;;;3.65;47.92;101552.91;693407;28;1337;-85
2022/04/03 00:08:56;;;;;;;4.00;3.60;;;;;;;3.56;47.38;101548.91;690726;28;1104;-84
2022/04/03 00:09:17;;;;;;;3.70;3.40;;;;;;;3.58;47.78;101543.88;689156;28;1165;-84
2022/04/03 00:09:38;;;;;;;3.90;3.55;;;;;;;3.51;47.62;101527.06;690173;28;956;-84
2022/04/03 00:09:59;;;;;;;4.00;3.50;;;;;;;3.59;47.52;101545.66;685381;28;760;-84
2022/04/03 00:10:21;;;;;;;3.85;3.47;;;;;;;3.53;47.63;101543.56;688680;28;1431;-85
2022/04/03 00:10:45;;;;;;;4.00;3.40;;;;;;;3.53;47.63;101535.81;692464;28;1381;-84
2022/04/03 00:11:06;;;;;;;3.92;3.50;;;;;;;3.55;47.75;101549.72;690672;28;1201;-85
2022/04/03 00:11:28;;;;;;;3.73;3.40;;;;;;;3.54;47.51;101541.84;693537;28;842;-84
2022/04/03 00:11:48;;;;;;;3.78;3.47;;;;;;;3.65;47.72;101552.91;688005;28;1068;-84
2022/04/03 00:12:09;;;;;;;4.07;3.67;;;;;;;3.51;47.63;101536.47;693268;28;1161;-84
2022/04/03 00:12:30;;;;;;;4.10;3.70;;;;;;;3.53;47.62;101551.28;687828;28;1579;-84
2022/04/03 00:12:50;;;;;;;4.00;3.70;;;;;;;3.54;47.59;101542.75;690728;28;1181;-85
2022/04/03 00:13:14;;;;;;;3.50;3.30;;;;;;;3.63;47.48;101554.50;686411;28;1716;-84
2022/04/03 00:13:36;;;;;;;3.67;3.17;;;;;;;3.58;47.47;101542.97;690644;28;1204;-84
2022/04/03 00:13:57;;;;;;;3.90;3.20;;;;;;;3.60;47.89;101543.97;687086;28;1264;-84
2022/04/03 00:14:18;;;;;;;3.77;3.27;;;;;;;3.59;47.77;101542.16;691970;28;1787;-84
2022/04/03 00:14:38;;;;;;;3.50;3.20;;;;;;;3.55;47.67;101531.63;693341;28;1160;-85
2022/04/03 00:14:59;;;;;;;3.70;3.40;;;;;;;3.59;47.75;101539.59;695473;28;1431;-84
2022/04/03 00:15:19;;;;;;;3.63;3.42;;;;;;;3.61;47.69;101540.59;690512;28;1269;-84
2022/04/03 00:15:42;;;;;;;3.90;3.67;;;;;;;3.66;47.72;101554.69;685209;28;1121;-84
2022/04/03 00:16:06;;;;;;;3.70;3.50;;;;;;;3.55;47.67;101543.63;688033;28;1101;-85
2022/04/03 00:16:27;;;;;;;3.78;3.55;;;;;;;3.52;47.63;101544.34;693134;28;1240;-84
2022/04/03 00:16:47;;;;;;;3.90;3.60;;;;;;;3.54;47.51;101542.75;689306;28;1823;-85
2022/04/03 00:17:08;;;;;;;3.80;3.50;;;;;;;3.56;47.99;101548.91;691822;28;1746;-84
2022/04/03 00:17:28;;;;;;;6.80;3.80;;;;;;;3.63;47.70;101551.94;691708;28;795;-84
2022/04/03 00:17:49;;;;;;;6.80;3.80;;;;;;;3.56;47.88;101545.47;693195;28;1654;-84
2022/04/03 00:18:10;;;;;;;6.68;3.60;;;;;;;3.62;47.79;101563.03;693416;28;1192;-85
2022/04/03 00:18:30;;;;;;;3.75;3.45;;;;;;;3.49;47.64;101544.13;687862;28;1291;-84
2022/04/03 00:18:51;;;;;;;3.60;3.40;;;;;;;3.59;47.61;101562.81;685268;28;1053;-85
2022/04/03 00:19:12;;;;;;;3.80;3.50;;;;;;;3.59;47.77;101555.06;687362;28;1163;-84
2022/04/03 00:19:32;;;;;;;3.90;3.30;;;;;;;3.63;47.64;101564.84;687619;28;1688;-85
2022/04/03 00:19:53;;;;;;;3.83;3.20;;;;;;;3.50;47.93;101540.75;695034;28;1194;-85
2022/04/03 00:20:14;;;;;;;3.80;3.20;;;;;;;3.47;47.73;101539.63;690636;28;1260;-84
2022/04/03 00:20:37;;;;;;;3.75;3.45;;;;;;;3.47;47.81;101540.53;688931;28;1148;-85
2022/04/03 00:20:58;;;;;;;4.10;3.80;;;;;;;3.60;47.73;101556.88;688001;28;764;-84
2022/04/03 00:21:19;;;;;;;4.00;3.70;;;;;;;3.48;48.09;101544.03;688123;28;1226;-85
2022/04/03 00:21:40;;;;;;;3.80;3.50;;;;;;;3.49;47.99;101549.28;693983;28;1799;-84
2022/04/03 00:22:01;;;;;;;3.70;3.40;;;;;;;3.44;48.04;101536.84;693576;28;791;-84
2022/04/03 00:22:22;;;;;;;4.00;3.60;;;;;;;3.50;48.01;101547.59;694043;28;1198;-85
2022/04/03 00:22:48;;;;;;;4.15;3.70;;;;;;;3.50;47.56;101545.91;690661;28;971;-85
2022/04/03 00:23:09;;;;;;;5.80;3.90;;;;;;;3.53;47.70;101556.47;687942;28;1091;-84
2022/04/03 00:23:30;;;;;;;5.65;3.78;;;;;;;3.49;48.23;101554.44;687935;28;902;-84
2022/04/03 00:23:50;;;;;;;5.40;3.70;;;;;;;3.49;48.00;101549.28;690022;28;1077;-84
2022/04/03 00:24:11;;;;;;;3.78;3.47;;;;;;;3.46;47.75;101543.91;687503;28;1046;-84
2022/04/03 00:24:32;;;;;;;3.70;3.40;;;;;;;3.46;47.63;101548.16;687055;28;1635;-84
2022/04/03 00:24:52;;;;;;;3.70;3.40;;;;;;;3.46;47.87;101549.06;693570;28;1396;-84
2022/04/03 00:25:13;;;;;;;3.60;3.30;;;;;;;3.53;47.97;101561.63;693251;28;1475;-84
2022/04/03 00:25:35;;;;;;;3.55;3.25;;;;;;;3.44;47.73;101549.75;693557;28;1001;-84
2022/04/03 00:25:55;;;;;;;3.50;3.20;;;;;;;3.47;48.12;101556.03;693475;28;1136;-84
2022/04/03 00:26:16;;;;;;;3.43;3.13;;;;;;;3.49;47.83;101554.44;689222;28;1206;-84
2022/04/03 00:26:36;;;;;;;3.63;3.30;;;;;;;3.43;48.00;101554.00;687852;28;1679;-84
2022/04/03 00:26:57;;;;;;;3.90;3.60;;;;;;;3.47;47.92;101560.28;690709;28;1963;-84
2022/04/03 00:27:18;;;;;;;4.30;3.90;;;;;;;3.42;47.86;101554.78;685255;28;1200;-84
2022/04/03 00:27:38;;;;;;;4.15;3.75;;;;;;;3.38;47.86;101547.66;682663;28;1697;-84
2022/04/03 00:27:59;;;;;;;4.05;3.63;;;;;;;3.37;47.65;101543.28;685236;28;1431;-84
2022/04/03 00:28:31;;;;;;;4.17;3.57;;;;;;;3.42;48.13;101557.38;690159;28;1544;-84
2022/04/03 00:28:52;;;;;;;4.80;3.83;;;;;;;3.41;47.96;101561.66;688128;28;897;-85
2022/04/03 00:29:12;;;;;;;4.53;3.50;;;;;;;3.37;48.01;101553.59;685936;28;1161;-84
2022/04/03 00:29:33;;;;;;;4.33;3.60;;;;;;;3.42;48.19;101557.38;687455;28;1623;-85
2022/04/03 00:29:54;;;;;;;4.00;3.08;;;;;;;3.36;48.10;101541.50;693201;28;766;-84
2022/04/03 00:30:15;;;;;;;5.50;3.40;;;;;;;3.38;48.10;101552.81;693232;28;1318;-84
2022/04/03 00:30:35;;;;;;;4.40;3.40;;;;;;;3.32;48.19;101542.97;693450;28;1019;-84
2022/04/03 00:30:56;;;;;;;3.80;3.30;;;;;;;3.32;47.90;101534.31;686024;28;1462;-84
2022/04/03 00:31:17;;;;;;;3.40;3.20;;;;;;;3.37;48.26;101548.44;687755;28;1462;-84
2022/04/03 00:31:38;;;;;;;3.30;3.10;;;;;;;3.47;48.10;101562.84;693126;28;1358;-84
2022/04/03 00:31:58;;;;;;;3.30;3.10;;;;;;;3.43;48.13;101561.75;685263;28;949;-84
2022/04/03 00:32:19;;;;;;;3.40;3.20;;;;;;;3.40;48.22;101556.38;688275;28;1205;-84
2022/04/03 00:32:40;;;;;;;3.65;3.40;;;;;;;3.38;48.04;101550.22;693405;28;1053;-84
2022/04/03 00:33:01;;;;;;;4.05;3.75;;;;;;;3.44;48.19;101563.56;693107;28;1043;-84
2022/04/03 00:33:21;;;;;;;4.20;3.80;;;;;;;3.40;48.06;101551.22;689694;28;1282;-84
2022/04/03 00:33:43;;;;;;;3.90;3.60;;;;;;;3.42;48.18;101553.13;693303;28;1443;-84
2022/04/03 00:34:04;;;;;;;3.72;3.42;;;;;;;3.38;48.05;101551.09;688101;28;1083;-84
2022/04/03 00:34:25;;;;;;;3.80;3.40;;;;;;;3.37;48.29;101546.72;690899;28;1406;-84
2022/04/03 00:34:46;;;;;;;3.80;3.40;;;;;;;3.33;48.31;101541.25;693310;28;1163;-85
2022/04/03 00:35:07;;;;;;;5.07;3.70;;;;;;;3.46;48.09;101564.56;691462;28;1281;-84
2022/04/03 00:35:28;;;;;;;5.20;3.78;;;;;;;3.32;48.10;101539.47;693456;28;1511;-84
2022/04/03 00:35:50;;;;;;;5.67;3.80;;;;;;;3.32;47.92;101540.38;687666;28;1037;-84
2022/04/03 00:36:10;;;;;;;3.60;3.30;;;;;;;3.37;48.12;101543.28;687894;28;1367;-84
2022/04/03 00:36:31;;;;;;;3.80;3.50;;;;;;;3.33;48.30;101536.09;690648;28;1130;-84
2022/04/03 00:36:54;;;;;;;3.67;3.37;;;;;;;3.33;47.96;101531.84;690813;28;764;-84
2022/04/03 00:37:14;;;;;;;3.53;3.30;;;;;;;3.35;48.09;101539.66;690529;28;1241;-84
2022/04/03 00:37:35;;;;;;;3.50;3.20;;;;;;;3.38;48.39;101545.06;688010;28;1723;-84
2022/04/03 00:37:56;;;;;;;3.60;3.30;;;;;;;3.33;48.13;101543.84;689497;28;1263;-84
2022/04/03 00:38:17;;;;;;;3.75;3.45;;;;;;;3.39;48.30;101552.00;690426;28;1213;-84
2022/04/03 00:38:38;;;;;;;3.90;3.60;;;;;;;3.35;48.05;101548.31;690733;28;1076;-84
2022/04/03 00:38:59;;;;;;;4.50;3.72;;;;;;;3.43;48.23;101554.00;688084;28;1269;-84
2022/04/03 00:39:20;;;;;;;4.50;3.90;;;;;;;3.44;48.20;101560.06;685168;28;1485;-84
2022/04/03 00:39:41;;;;;;;4.28;3.92;;;;;;;3.33;48.36;101539.59;687353;28;1609;-85
2022/04/03 00:40:02;;;;;;;4.10;3.80;;;;;;;3.46;48.02;101561.97;687994;28;1162;-84
2022/04/03 00:40:26;;;;;;;4.18;3.88;;;;;;;3.44;48.26;101562.66;685331;28;1206;-84
2022/04/03 00:40:48;;;;;;;3.95;3.65;;;;;;;3.42;48.20;101552.22;688035;28;1017;-84
2022/04/03 00:41:10;;;;;;;3.85;3.55;;;;;;;3.41;48.29;101545.25;687937;28;1119;-84
2022/04/03 00:41:31;;;;;;;3.50;3.30;;;;;;;3.39;48.03;101545.16;686594;28;800;-84
2022/04/03 00:41:52;;;;;;;3.40;3.20;;;;;;;3.45;48.68;101557.59;693432;28;1322;-84
2022/04/03 00:42:14;;;;;;;3.55;3.35;;;;;;;3.33;47.97;101536.09;687838;28;1363;-85
2022/04/03 00:42:36;;;;;;;4.10;3.80;;;;;;;3.38;48.36;101556.25;693205;28;1389;-84
2022/04/03 00:42:57;;;;;;;3.92;3.63;;;;;;;3.37;48.21;101549.31;688132;28;791;-84
2022/04/03 00:43:17;;;;;;;4.10;3.70;;;;;;;3.38;48.18;101545.06;693216;28;1294;-84
2022/04/03 00:43:38;;;;;;;3.83;3.45;;;;;;;3.40;48.37;101551.22;687993;28;1066;-84
2022/04/03 00:43:59;;;;;;;4.90;3.70;;;;;;;3.32;48.40;101540.38;690736;28;1115;-84
2022/04/03 00:44:20;;;;;;;4.45;3.60;;;;;;;3.41;48.50;101558.16;688560;28;1437;-84
2022/04/03 00:44:40;;;;;;;4.20;3.50;;;;;;;3.37;48.13;101551.03;695757;28;1195;-84
2022/04/03 00:45:03;;;;;;;3.70;3.40;;;;;;;3.36;48.46;101551.81;695810;28;1304;-84
2022/04/03 00:45:23;;;;;;;3.97;3.60;;;;;;;3.36;48.50;101552.69;696034;28;1340;-84
2022/04/03 00:45:46;;;;;;;4.10;3.70;;;;;;;3.36;48.41;101567.28;696086;28;1399;-84
2022/04/03 00:46:08;;;;;;;4.95;3.83;;;;;;;3.29;48.16;101547.88;692927;28;1311;-85
2022/04/03 00:46:31;;;;;;;4.47;3.70;;;;;;;3.26;48.54;101539.94;692166;28;1217;-85
2022/04/03 00:46:52;;;;;;;4.00;3.40;;;;;;;3.28;48.35;101541.84;690575;28;1232;-84
2022/04/03 00:47:14;;;;;;;3.70;3.40;;;;;;;3.32;48.51;101563.59;692655;28;1972;-84
2022/04/03 00:47:35;;;;;;;4.50;3.45;;;;;;;3.23;48.67;101550.94;690650;28;997;-85
2022/04/03 00:48:15;;;;;;;4.60;3.35;;;;;;;3.31;48.34;101566.06;690886;28;763;-84
2022/04/03 00:48:36;;;;;;;3.80;3.40;;;;;;;3.20;48.60;101545.56;688844;28;1405;-85
2022/04/03 00:48:59;;;;;;;4.00;3.50;;;;;;;3.22;48.61;101555.97;685125;28;1358;-85
2022/04/03 00:49:21;;;;;;;3.90;3.60;;;;;;;3.21;48.73;101551.59;684822;28;1137;-85
2022/04/03 00:49:41;;;;;;;3.72;3.42;;;;;;;3.20;48.63;101550.72;687255;28;1296;-85
2022/04/03 00:50:03;;;;;;;3.80;3.50;;;;;;;3.15;48.59;101542.63;685253;28;1255;-85
2022/04/03 00:50:24;;;;;;;3.67;3.38;;;;;;;3.20;48.62;101557.56;690582;28;1186;-85
2022/04/03 00:50:45;;;;;;;4.25;3.53;;;;;;;3.12;48.91;101547.59;690776;28;997;-84
2022/04/03 00:51:05;;;;;;;4.53;3.67;;;;;;;3.21;48.74;101561.94;687693;28;1294;-85
2022/04/03 00:51:29;;;;;;;4.10;3.70;;;;;;;3.14;48.93;101555.44;690494;28;1472;-85
2022/04/03 00:51:50;;;;;;;3.42;3.13;;;;;;;3.17;48.73;101560.81;690424;28;925;-84
2022/04/03 00:52:10;;;;;;;3.67;3.37;;;;;;;3.09;48.95;101547.38;696042;28;1214;-84
2022/04/03 00:52:32;;;;;;;4.13;3.72;;;;;;;3.11;48.91;101562.94;693097;28;1752;-85
2022/04/03 00:52:53;;;;;;;5.57;3.58;;;;;;;3.11;49.17;101556.13;693528;28;811;-84
2022/04/03 00:53:13;;;;;;;4.30;3.33;;;;;;;3.12;49.39;101551.88;688744;28;1167;-84
2022/04/03 00:53:34;;;;;;;4.43;3.37;;;;;;;3.12;48.90;101562.19;687055;28;1702;-84
2022/04/03 00:53:56;;;;;;;4.07;3.78;;;;;;;3.06;48.81;101556.59;690596;28;1230;-84
2022/04/03 00:54:17;;;;;;;4.15;3.75;;;;;;;3.03;49.31;101546.03;687812;28;1406;-84
2022/04/03 00:54:37;;;;;;;4.15;3.75;;;;;;;3.01;49.31;101556.25;689991;28;1157;-85
2022/04/03 00:54:58;;;;;;;4.20;3.80;;;;;;;3.08;49.22;101563.66;693374;28;1145;-84
2022/04/03 00:55:19;;;;;;;4.60;4.20;;;;;;;3.08;49.12;101560.16;690528;28;1183;-84
2022/04/03 00:55:42;;;;;;;4.40;4.00;;;;;;;3.01;49.66;101554.56;685276;28;1382;-85
2022/04/03 00:56:02;;;;;;;3.97;3.67;;;;;;;3.00;49.47;101552.78;693224;28;1174;-84
2022/04/03 00:56:23;;;;;;;3.67;3.38;;;;;;;3.02;49.63;101558.06;690490;28;1536;-84
2022/04/03 00:56:45;;;;;;;3.40;3.20;;;;;;;3.07;49.41;101568.69;690631;28;1078;-85
2022/04/03 00:57:07;;;;;;;3.60;3.30;;;;;;;3.05;49.36;101571.16;685315;28;1355;-85
2022/04/03 00:57:28;;;;;;;3.60;3.30;;;;;;;2.96;49.28;101544.72;693282;28;1136;-86
2022/04/03 00:57:48;;;;;;;3.70;3.40;;;;;;;2.98;49.32;101549.19;689318;28;1162;-84
2022/04/03 00:58:12;;;;;;;3.97;3.67;;;;;;;2.98;49.10;101551.78;690638;28;1429;-84
2022/04/03 00:58:36;;;;;;;3.80;3.50;;;;;;;3.02;49.37;101565.78;687733;28;1093;-84
2022/04/03 00:58:57;;;;;;;3.80;3.50;;;;;;;2.96;49.42;101552.44;693385;28;1273;-84
2022/04/03 00:59:17;;;;;;;4.78;3.55;;;;;;;3.05;49.40;101570.28;690661;28;1165;-84
2022/04/03 00:59:41;;;;;;;5.22;3.80;;;;;;;2.96;49.56;101553.34;689869;28;1052;-85
2022/04/03 01:00:03;;;;;;;4.88;3.63;;;;;;;2.98;49.53;101559.50;685126;28;1339;-84
2022/04/03 01:00:24;;;;;;;3.90;3.60;;;;;;;3.01;49.46;101564.00;692766;28;1365;-84
2022/04/03 01:00:45;;;;;;;5.13;3.50;;;;;;;2.96;49.27;101552.44;696165;28;962;-85
2022/04/03 01:01:06;;;;;;;5.07;3.55;;;;;;;2.98;49.36;101558.59;687962;28;1036;-85
2022/04/03 01:01:26;;;;;;;5.43;3.65;;;;;;;3.01;49.65;101567.47;691103;28;1281;-85
2022/04/03 01:01:47;;;;;;;4.60;3.70;;;;;;;3.05;49.37;101565.13;690464;28;1182;-84
2022/04/03 01:02:09;;;;;;;6.83;4.10;;;;;;;2.95;49.29;101545.50;687864;28;1206;-84
2022/04/03 01:02:31;;;;;;;5.63;3.92;;;;;;;2.99;49.61;101565.53;696195;28;849;-84
2022/04/03 01:02:52;;;;;;;5.60;3.90;;;;;;;2.92;49.46;101553.91;693228;28;1152;-84
2022/04/03 01:03:12;;;;;;;3.70;3.40;;;;;;;3.03;49.49;101566.66;692996;28;1122;-84
2022/04/03 01:03:33;;;;;;;3.47;3.17;;;;;;;3.00;49.34;101563.09;690626;28;1112;-84
2022/04/03 01:04:16;;;;;;;3.20;3.00;;;;;;;3.06;49.78;101566.91;693345;28;786;-85
2022/04/03 01:04:38;;;;;;;3.53;3.28;;;;;;;2.95;49.49;101550.66;694646;28;1638;-83
2022/04/03 01:05:11;;;;;;;3.60;3.40;;;;;;;3.05;49.63;101567.69;690923;28;1563;-84
2022/04/03 01:05:31;;;;;;;3.63;3.43;;;;;;;3.04;49.71;101563.28;690091;28;1555;-84
2022/04/03 01:05:52;;;;;;;3.53;3.30;;;;;;;2.99;49.54;101556.16;691361;28;803;-85
2022/04/03 01:06:13;;;;;;;5.50;3.53;;;;;;;2.96;49.81;101555.94;692444;28;1173;-85
2022/04/03 01:06:33;;;;;;;5.45;3.30;;;;;;;2.97;49.41;101552.56;689948;28;1614;-84
2022/04/03 01:06:57;;;;;;;6.47;3.30;;;;;;;3.00;49.76;101562.22;687775;28;1952;-84
2022/04/03 01:07:19;;;;;;;5.10;3.25;;;;;;;2.97;49.53;101557.72;686583;28;1174;-84
2022/04/03 01:07:43;;;;;;;3.80;3.50;;;;;;;3.06;49.44;101566.91;690134;28;1385;-84
2022/04/03 01:08:04;;;;;;;4.15;3.75;;;;;;;3.00;49.51;101551.91;687588;28;1161;-85
2022/04/03 01:08:25;;;;;;;4.35;3.90;;;;;;;3.04;49.36;101565.88;691745;28;1762;-84
2022/04/03 01:08:45;;;;;;;6.95;4.00;;;;;;;3.00;49.58;101557.06;692424;28;1337;-85
2022/04/03 01:09:06;;;;;;;7.30;4.07;;;;;;;3.02;49.61;101555.47;692399;28;1080;-85
2022/04/03 01:09:27;;;;;;;6.05;3.60;;;;;;;3.00;49.53;101551.91;684877;28;1120;-84
2022/04/03 01:09:47;;;;;;;5.50;3.30;;;;;;;2.95;49.32;101548.09;687543;28;1147;-84
2022/04/03 01:10:08;;;;;;;5.60;3.15;;;;;;;3.04;49.54;101563.28;690435;28;1095;-84
2022/04/03 01:10:29;;;;;;;6.53;3.57;;;;;;;2.91;49.55;101541.81;688015;28;1271;-84
2022/04/03 01:10:50;;;;;;;5.63;3.37;;;;;;;3.00;49.70;101555.34;687825;28;1229;-85
2022/04/03 01:11:12;;;;;;;4.90;3.30;;;;;;;2.99;49.55;101550.06;685533;28;1380;-84
2022/04/03 01:11:34;;;;;;;5.93;3.15;;;;;;;2.98;49.04;101548.28;687861;28;1755;-84
2022/04/03 01:11:56;;;;;;;4.90;3.28;;;;;;;3.06;49.46;101561.75;698712;28;880;-85
2022/04/03 01:12:17;;;;;;;6.07;3.30;;;;;;;2.99;49.76;101558.72;692261;28;1355;-84
2022/04/03 01:12:45;;;;;;;4.07;3.20;;;;;;;2.96;49.73;101545.63;685144;28;1204;-83
2022/04/03 01:13:05;;;;;;;4.32;3.63;;;;;;;3.01;49.72;101566.59;682611;29;955;-84
2022/04/03 01:13:26;;;;;;;5.80;3.60;;;;;;;2.89;49.95;101548.53;691776;28;1459;-84
2022/04/03 01:13:51;;;;;;;5.93;3.60;;;;;;;2.82;50.00;101542.03;696134;28;1121;-85
2022/04/03 01:14:12;;;;;;;6.05;3.60;;;;;;;2.90;49.69;101565.81;690654;28;1301;-84
2022/04/03 01:14:37;;;;;;;4.80;3.90;;;;;;;2.92;49.85;101564.22;690588;28;1732;-85
2022/04/03 01:14:58;;;;;;;4.47;3.90;;;;;;;2.81;50.14;101558.28;690711;28;921;-84
2022/04/03 01:15:19;;;;;;;4.10;3.70;;;;;;;2.76;49.71;101553.59;685418;28;1382;-84
2022/04/03 01:15:39;;;;;;;3.83;3.53;;;;;;;2.82;50.22;101551.47;687871;28;1304;-84
2022/04/03 01:16:00;;;;;;;3.75;3.45;;;;;;;2.75;49.79;101552.69;693340;28;1207;-84
2022/04/03 01:16:24;;;;;;;3.80;3.50;;;;;;;2.76;49.78;101545.84;692751;28;1416;-84
2022/04/03 01:16:45;;;;;;;3.85;3.55;;;;;;;2.78;50.27;101559.75;693108;28;1211;-85
2022/04/03 01:17:07;;;;;;;4.00;3.70;;;;;;;2.80;50.42;101574.53;687819;28;1260;-84
2022/04/03 01:17:28;;;;;;;4.03;3.72;;;;;;;2.73;50.23;101556.84;687741;28;1584;-84
2022/04/03 01:17:48;;;;;;;3.90;3.60;;;;;;;2.72;50.08;101560.19;690587;28;799;-84
2022/04/03 01:18:09;;;;;;;3.70;3.40;;;;;;;2.67;49.97;101548.66;692931;28;1162;-84
2022/04/03 01:18:30;;;;;;;3.63;3.33;;;;;;;2.69;50.17;101550.56;692049;28;1702;-84
2022/04/03 01:18:51;;;;;;;3.60;3.30;;;;;;;2.76;50.42;101561.31;686454;28;1123;-84
2022/04/03 01:19:11;;;;;;;3.90;3.50;;;;;;;2.71;50.01;101563.56;687812;28;1284;-84
2022/04/03 01:19:33;;;;;;;3.85;3.55;;;;;;;2.72;50.38;101553.38;692796;28;1896;-84
2022/04/03 01:19:54;;;;;;;4.20;3.90;;;;;;;2.75;50.52;101567.28;693155;28;1226;-84
2022/04/03 01:20:15;;;;;;;3.80;3.60;;;;;;;2.67;50.38;101553.81;689714;28;1248;-84
2022/04/03 01:20:35;;;;;;;3.95;3.65;;;;;;;2.72;50.29;101574.00;689486;28;1706;-85
2022/04/03 01:20:56;;;;;;;3.77;3.47;;;;;;;2.61;50.33;101543.06;685253;28;760;-85
2022/04/03 01:21:18;;;;;;;3.88;3.47;;;;;;;2.67;50.50;101558.97;689628;28;1538;-84
2022/04/03 01:21:39;;;;;;;3.60;3.30;;;;;;;2.64;50.25;101559.66;695903;28;1755;-84
2022/04/03 01:22:33;;;;;;;3.70;3.40;;;;;;;2.69;50.31;101566.03;693107;28;1448;-85
2022/04/03 01:22:54;;;;;;;4.07;3.70;;;;;;;2.60;50.70;101547.31;688012;28;917;-84
2022/04/03 01:23:15;;;;;;;4.34;4.00;;;;;;;2.58;50.92;101546.31;688970;28;1123;-84
2022/04/03 01:23:36;;;;;;;4.23;3.90;;;;;;;2.65;50.64;101566.59;689867;28;1778;-85
2022/04/03 01:23:57;;;;;;;4.95;4.10;;;;;;;2.63;50.78;101554.38;689478;28;783;-85
2022/04/03 01:24:21;;;;;;;4.43;3.90;;;;;;;2.58;50.20;101546.31;687773;28;1212;-84
2022/04/03 01:24:43;;;;;;;4.20;3.80;;;;;;;2.66;50.77;101563.25;693255;28;1116;-84
2022/04/03 01:25:05;;;;;;;3.70;3.40;;;;;;;2.55;50.36;101535.78;690417;28;1235;-85
2022/04/03 01:25:26;;;;;;;3.45;3.20;;;;;;;2.58;50.90;101561.78;693502;28;1138;-84
2022/04/03 01:25:46;;;;;;;3.55;3.25;;;;;;;2.62;50.67;101558.63;684977;28;1684;-84
2022/04/03 01:26:25;;;;;;;3.83;3.50;;;;;;;2.65;50.37;101566.59;687759;28;1675;-84
2022/04/03 01:26:46;;;;;;;9.52;3.90;;;;;;;2.51;50.39;101549.22;690247;28;1286;-84
2022/04/03 01:27:06;;;;;;;9.05;3.70;;;;;;;2.55;50.99;101551.22;693301;28;1914;-84
2022/04/03 01:27:27;;;;;;;6.03;3.65;;;;;;;2.53;50.63;101556.28;690578;28;1385;-84
2022/04/03 01:27:48;;;;;;;4.20;3.47;;;;;;;2.58;50.83;101566.94;693296;28;1126;-84
2022/04/03 01:28:08;;;;;;;4.00;3.60;;;;;;;2.51;50.54;101551.81;690392;28;1190;-84
2022/04/03 01:28:29;;;;;;;4.43;3.43;;;;;;;2.53;50.73;101556.28;694935;28;1502;-85
2022/04/03 01:28:54;;;;;;;4.20;3.17;;;;;;;2.48;50.56;101549.91;690487;28;1017;-85
2022/04/03 01:29:17;;;;;;;3.92;3.10;;;;;;;2.53;50.73;101565.69;690488;28;1457;-85
2022/04/03 01:29:38;;;;;;;3.75;3.45;;;;;;;2.40;50.53;101551.88;689941;28;904;-84
2022/04/03 01:29:59;;;;;;;3.70;3.40;;;;;;;2.46;50.87;101557.50;696075;28;1430;-85
2022/04/03 01:30:20;;;;;;;4.25;3.50;;;;;;;2.48;50.87;101561.88;692926;28;1268;-85
2022/04/03 01:30:40;;;;;;;4.60;3.40;;;;;;;2.46;50.72;101565.22;693302;28;1108;-85
2022/04/03 01:31:01;;;;;;;4.93;3.65;;;;;;;2.48;50.76;101567.03;687865;28;1305;-85
2022/04/03 01:31:21;;;;;;;4.20;3.80;;;;;;;2.38;50.90;101544.84;684267;28;1206;-84
2022/04/03 01:31:43;;;;;;;4.40;4.00;;;;;;;2.39;51.15;101555.25;689834;28;1117;-84
2022/04/03 01:32:04;;;;;;;4.18;3.88;;;;;;;2.40;51.02;101561.31;690423;28;1404;-84
2022/04/03 01:32:30;;;;;;;3.97;3.67;;;;;;;2.34;50.98;101551.47;689077;28;1504;-84
2022/04/03 01:32:51;;;;;;;4.20;3.80;;;;;;;2.35;51.35;101553.25;687228;28;1504;-85
2022/04/03 01:33:11;;;;;;;4.27;3.87;;;;;;;2.31;51.29;101540.91;690476;28;1245;-84
2022/04/03 01:33:32;;;;;;;4.43;4.03;;;;;;;2.38;51.25;101556.03;690926;28;1130;-84
2022/04/03 01:33:53;;;;;;;4.78;3.80;;;;;;;2.30;51.11;101545.19;685226;28;784;-84
2022/04/03 01:34:14;;;;;;;5.40;3.67;;;;;;;2.42;51.03;101568.38;688663;28;1123;-84
2022/04/03 01:34:35;;;;;;;5.40;3.60;;;;;;;2.32;51.09;101547.84;693072;28;1354;-84
2022/04/03 01:34:55;;;;;;;3.90;3.57;;;;;;;2.35;51.18;101553.25;690518;28;780;-84
2022/04/03 01:35:17;;;;;;;4.10;3.70;;;;;;;2.36;51.13;101557.63;693122;28;1199;-85
2022/04/03 01:35:38;;;;;;;4.10;3.70;;;;;;;2.31;51.41;101546.06;687481;28;1750;-85
2022/04/03 01:35:58;;;;;;;3.80;3.50;;;;;;;2.39;51.32;101555.25;690359;28;1359;-84
2022/04/03 01:36:19;;;;;;;3.90;3.60;;;;;;;2.41;51.24;101558.88;693248;28;1182;-84
2022/04/03 01:36:39;;;;;;;3.75;3.45;;;;;;;2.39;51.24;101557.81;694524;28;968;-85
2022/04/03 01:37:01;;;;;;;3.70;3.40;;;;;;;2.42;51.33;101564.88;687909;28;946;-85
2022/04/03 01:37:22;;;;;;;3.88;3.50;;;;;;;2.38;50.80;101558.63;691997;28;1093;-85
2022/04/03 01:37:43;;;;;;;4.05;3.40;;;;;;;2.34;51.24;101542.81;693299;28;1193;-84
2022/04/03 01:38:04;;;;;;;4.30;3.60;;;;;;;2.42;50.96;101559.75;690468;28;1372;-85
2022/04/03 01:38:25;;;;;;;4.07;3.50;;;;;;;2.36;50.82;101554.13;690546;28;1036;-84
2022/04/03 01:38:45;;;;;;;4.00;3.60;;;;;;;2.37;51.16;101550.78;685086;28;1301;-84
2022/04/03 01:39:06;;;;;;;3.80;3.50;;;;;;;2.33;51.13;101549.66;685105;28;1113;-84
2022/04/03 01:39:27;;;;;;;3.95;3.50;;;;;;;2.34;51.24;101546.31;685045;28;1356;-85
2022/04/03 01:39:47;;;;;;;4.88;3.60;;;;;;;2.34;51.44;101545.41;687458;28;1095;-84
2022/04/03 01:40:08;;;;;;;7.57;3.60;;;;;;;2.36;51.28;101549.88;693126;28;1103;-84
2022/04/03 01:40:29;;;;;;;7.03;3.72;;;;;;;2.33;51.35;101544.53;696087;28;779;-85
2022/04/03 01:40:49;;;;;;;6.60;3.87;;;;;;;2.42;51.38;101560.66;693323;28;985;-85
2022/04/03 01:41:10;;;;;;;4.20;3.80;;;;;;;2.39;51.29;101555.25;686935;28;1197;-84
2022/04/03 01:41:30;;;;;;;4.20;3.90;;;;;;;2.35;51.43;101552.34;685341;28;753;-85
2022/04/03 01:42:09;;;;;;;4.10;3.80;;;;;;;2.44;50.99;101564.22;687697;28;1090;-84
2022/04/03 01:42:29;;;;;;;4.05;3.75;;;;;;;2.37;50.82;101549.09;687094;28;1700;-84
2022/04/03 01:42:50;;;;;;;3.80;3.60;;;;;;;2.41;51.07;101560.53;693158;28;1167;-84
2022/04/03 01:43:11;;;;;;;3.97;3.63;;;;;;;2.41;51.15;101564.00;690288;28;1098;-85
2022/04/03 01:43:31;;;;;;;4.45;3.33;;;;;;;2.32;51.37;101547.84;693431;28;776;-85
2022/04/03 01:43:52;;;;;;;5.77;3.43;;;;;;;2.34;50.92;101551.47;690465;28;1120;-84
2022/04/03 01:44:13;;;;;;;4.43;3.30;;;;;;;2.34;51.32;101554.03;690559;28;1166;-84
2022/04/03 01:44:33;;;;;;;3.70;3.40;;;;;;;2.37;51.12;101556.81;690439;28;953;-84